Titan — ZCED2 — position and weather

sailwx.info

Track history (hours):
 
Tides and Currents Weather Stations Pressure Air Temp Water Temp Dewpoint Dewpoint Depression Visibility Wind Speed Wind Dir Waves Ship Positions

Titan

Last reported at 2016-May-24 07:06 UTC. Time now 2016-May-27 14:19 UTC.
Position N 39°29' E 002°29'.

Length 80 m; draft 3.5 m.

Type: Pleasure craft. MMSI: 310598000.

Date/timePositionNaut miles runAvg speedWind from/ knotsBaromVisibWave heightAir tempDewpointWater temp
2016-May-24 07:06N 39°29' E 002°29'0 0.0
2016-May-24 06:12N 39°29' E 002°29'1 0.0
2016-May-23 15:33N 39°29' E 002°28'0 0.1
2016-May-23 14:29N 39°29' E 002°28'4 4.3
2016-May-23 13:34N 39°30' E 002°33'1 1.3
2016-May-23 12:31N 39°31' E 002°33'0 0.0
2016-May-23 11:31N 39°31' E 002°33'0 0.0
2016-May-23 10:28N 39°31' E 002°33'0 0.0
2016-May-23 09:31N 39°31' E 002°33'4 4.2
2016-May-23 08:33N 39°33' E 002°38'0 0.0
2016-May-23 07:31N 39°33' E 002°38'0 0.0
2016-May-23 06:28N 39°33' E 002°38'0 0.0
2016-May-23 05:28N 39°33' E 002°38'0 0.0
2016-May-23 04:31N 39°33' E 002°38'0 0.0
2016-May-23 03:31N 39°33' E 002°38'0 0.0
2016-May-23 02:31N 39°33' E 002°38'0 0.0
2016-May-23 01:31N 39°33' E 002°38'0 0.0
2016-May-23 00:31N 39°33' E 002°38'0 0.0
2016-May-22 23:31N 39°33' E 002°38'0 0.0
2016-May-22 22:31N 39°33' E 002°38'0 0.0
2016-May-22 21:31N 39°33' E 002°38'0 0.0
2016-May-22 20:31N 39°33' E 002°38'0 0.0
2016-May-22 19:31N 39°33' E 002°38'0 0.0
2016-May-22 18:31N 39°33' E 002°38'0 0.0
2016-May-22 17:31N 39°33' E 002°38'0 0.0
2016-May-22 16:31N 39°33' E 002°38'0 0.0
2016-May-22 15:31N 39°33' E 002°38'0 0.0
2016-May-22 14:31N 39°33' E 002°38'0 0.0
2016-May-22 13:31N 39°33' E 002°38'0 0.0
2016-May-22 12:31N 39°33' E 002°38'0 0.0
2016-May-22 11:28N 39°33' E 002°38'0 0.0
2016-May-22 10:31N 39°33' E 002°38'0 0.0
2016-May-22 09:31N 39°33' E 002°38'0 0.0
2016-May-22 08:31N 39°33' E 002°38'0 0.0
2016-May-22 07:31N 39°33' E 002°38'0 0.0
2016-May-22 06:31N 39°33' E 002°38'0 0.0
2016-May-22 05:31N 39°33' E 002°38'0 0.0
2016-May-22 04:31N 39°33' E 002°38'0 0.0
2016-May-22 03:31N 39°33' E 002°38'0 0.0
2016-May-22 02:31N 39°33' E 002°38'0 0.0
2016-May-22 01:32N 39°33' E 002°38'0 0.0
2016-May-22 00:31N 39°33' E 002°38'0 0.0
2016-May-21 23:31N 39°33' E 002°38'0 0.0
2016-May-21 22:31N 39°33' E 002°38'0 0.0
2016-May-21 21:31N 39°33' E 002°38'0 0.0
2016-May-21 20:31N 39°33' E 002°38'0 0.0
2016-May-21 19:31N 39°33' E 002°38'0 0.0
2016-May-21 18:31N 39°33' E 002°38'0 0.0
2016-May-21 17:31N 39°33' E 002°38'0 0.0
2016-May-21 16:31N 39°33' E 002°38'0 0.0
2016-May-21 15:31N 39°33' E 002°38'0 0.0
2016-May-21 14:31N 39°33' E 002°38'0 0.0
2016-May-21 13:31N 39°33' E 002°38'0 0.0
2016-May-21 12:28N 39°33' E 002°38'0 0.0
2016-May-21 11:31N 39°33' E 002°38'0 0.0
2016-May-21 10:31N 39°33' E 002°38'0 0.0
2016-May-21 09:31N 39°33' E 002°38'0 0.0
2016-May-21 08:31N 39°33' E 002°38'0 0.0
2016-May-21 07:31N 39°33' E 002°38'0 0.0
2016-May-21 06:31N 39°33' E 002°38'0 0.0
2016-May-21 05:31N 39°33' E 002°38'0 0.0
2016-May-21 04:31N 39°33' E 002°38'0 0.0
2016-May-21 03:31N 39°33' E 002°38'0 0.0
2016-May-21 02:31N 39°33' E 002°38'0 0.0
2016-May-21 01:31N 39°33' E 002°38'0 0.0
2016-May-21 00:31N 39°33' E 002°38'0 0.0
2016-May-20 23:25N 39°33' E 002°38'0 0.0
2016-May-20 22:31N 39°33' E 002°38'0 0.0
2016-May-20 21:28N 39°33' E 002°38'0 0.0
2016-May-20 20:28N 39°33' E 002°38'0 0.0
2016-May-20 19:31N 39°33' E 002°38'0 0.0
2016-May-20 18:28N 39°33' E 002°38'0 0.0
2016-May-20 17:31N 39°33' E 002°38'0 0.0
2016-May-20 16:31N 39°33' E 002°38'0 0.0
2016-May-20 15:31N 39°33' E 002°38'0 0.0
2016-May-20 14:31N 39°33' E 002°38'0 0.0
2016-May-20 13:31N 39°33' E 002°38'0 0.0
2016-May-20 12:31N 39°33' E 002°38'0 0.0
2016-May-20 11:31N 39°33' E 002°38'0 0.0
2016-May-20 10:31N 39°33' E 002°38'0 0.0
2016-May-20 09:25N 39°33' E 002°38'0 0.0
2016-May-20 08:31N 39°33' E 002°38'0 0.0
2016-May-20 07:31N 39°33' E 002°38'0 0.0
2016-May-20 06:31N 39°33' E 002°38'0 0.0
2016-May-20 05:31N 39°33' E 002°38'0 0.0
2016-May-20 04:31N 39°33' E 002°38'0 0.0
2016-May-20 03:31N 39°33' E 002°38'0 0.0
2016-May-20 02:31N 39°33' E 002°38'0 0.0
2016-May-20 01:31N 39°33' E 002°38'0 0.0
2016-May-20 00:31N 39°33' E 002°38'0 0.0
2016-May-19 23:31N 39°33' E 002°38'0 0.0
2016-May-19 22:28N 39°33' E 002°38'0 0.0
2016-May-19 21:31N 39°33' E 002°38'0 0.0
2016-May-19 20:31N 39°33' E 002°38'0 0.0
2016-May-19 19:31N 39°33' E 002°38'0 0.0
2016-May-19 18:31N 39°33' E 002°38'0 0.0
2016-May-19 17:31N 39°33' E 002°38'0 0.0
2016-May-19 16:31N 39°33' E 002°38'0 0.0
2016-May-19 15:31N 39°33' E 002°38'0 0.0
2016-May-19 10:31N 39°33' E 002°38'0 0.0
2016-May-19 09:31N 39°33' E 002°38'0 0.0
2016-May-19 08:31N 39°33' E 002°38'0 0.0
2016-May-19 07:28N 39°33' E 002°38'0 0.0
2016-May-19 06:31N 39°33' E 002°38'0 0.0
2016-May-19 05:28N 39°33' E 002°38'0 0.0
2016-May-19 04:31N 39°33' E 002°38'0 0.0
2016-May-19 03:31N 39°33' E 002°38'0 0.0
2016-May-19 02:31N 39°33' E 002°38'0 0.0
2016-May-19 01:31N 39°33' E 002°38'0 0.0
2016-May-19 00:31N 39°33' E 002°38'0 0.0
2016-May-18 23:31N 39°33' E 002°38'0 0.0
2016-May-18 22:28N 39°33' E 002°38'0 0.0
2016-May-18 21:31N 39°33' E 002°38'0 0.0
2016-May-18 20:31N 39°33' E 002°38'0 0.0
2016-May-18 19:22N 39°33' E 002°38'0 0.0
2016-May-18 18:31N 39°33' E 002°38'0 0.0
2016-May-18 17:31N 39°33' E 002°38'0 0.0
2016-May-18 16:31N 39°33' E 002°38'0 0.0
2016-May-18 15:31N 39°33' E 002°38'0 0.0
2016-May-18 14:31N 39°33' E 002°38'0 0.0
2016-May-18 13:31N 39°33' E 002°38'0 0.0
2016-May-18 12:31N 39°33' E 002°38'0 0.0
2016-May-18 11:31N 39°33' E 002°38'0 0.0
2016-May-18 10:31N 39°33' E 002°38'0 0.0
2016-May-18 09:31N 39°33' E 002°38'0 0.0
2016-May-18 08:28N 39°33' E 002°38'0 0.0
2016-May-18 07:31N 39°33' E 002°38'0 0.0
2016-May-18 06:31N 39°33' E 002°38'0 0.0
2016-May-18 05:31N 39°33' E 002°38'0 0.0
2016-May-18 04:31N 39°33' E 002°38'0 0.0
2016-May-18 03:31N 39°33' E 002°38'0 0.0
2016-May-18 02:31N 39°33' E 002°38'0 0.0
2016-May-18 01:31N 39°33' E 002°38'0 0.0
2016-May-18 00:31N 39°33' E 002°38'0 0.0
2016-May-17 23:31N 39°33' E 002°38'0 0.0
2016-May-17 22:28N 39°33' E 002°38'0 0.0
2016-May-17 21:31N 39°33' E 002°38'0 0.0
2016-May-17 20:31N 39°33' E 002°38'0 0.0
2016-May-17 19:31N 39°33' E 002°38'0 0.0
2016-May-17 18:31N 39°33' E 002°38'0 0.0
2016-May-17 17:31N 39°33' E 002°38'0 0.0
2016-May-17 16:31N 39°33' E 002°38'0 0.0
2016-May-17 15:31N 39°33' E 002°38'0 0.0
2016-May-17 14:31N 39°33' E 002°38'0 0.0
2016-May-17 13:31N 39°33' E 002°38'0 0.0
2016-May-17 12:31N 39°33' E 002°38'0 0.0
2016-May-17 11:31N 39°33' E 002°38'0 0.0
2016-May-17 10:31N 39°33' E 002°38'0 0.0
2016-May-17 09:31N 39°33' E 002°38'0 0.0
2016-May-17 08:31N 39°33' E 002°38'0 0.0
2016-May-17 07:31N 39°33' E 002°38'0 0.0
2016-May-17 06:31N 39°33' E 002°38'0 0.0
2016-May-17 05:28N 39°33' E 002°38'0 0.0
2016-May-17 04:31N 39°33' E 002°38'0 0.0
2016-May-17 03:31N 39°33' E 002°38'0 0.0
2016-May-17 02:28N 39°33' E 002°38'0 0.0
2016-May-17 01:31N 39°33' E 002°38'0 0.0
2016-May-17 00:31N 39°33' E 002°38'0 0.0
2016-May-16 23:31N 39°33' E 002°38'0 0.0
2016-May-16 22:31N 39°33' E 002°38'0 0.0
2016-May-16 21:31N 39°33' E 002°38'0 0.0
2016-May-16 20:28N 39°33' E 002°38'0 0.0
2016-May-16 19:31N 39°33' E 002°38'0 0.0
2016-May-16 18:31N 39°33' E 002°38'0 0.0
2016-May-16 17:31N 39°33' E 002°38'0 0.0
2016-May-16 16:31N 39°33' E 002°38'0 0.0
2016-May-16 12:07N 39°33' E 002°38'0 0.0
2016-May-16 11:28N 39°33' E 002°38'0 0.0
2016-May-16 10:31N 39°33' E 002°38'0 0.0
2016-May-16 09:31N 39°33' E 002°38'0 0.0
2016-May-16 08:31N 39°33' E 002°38'0 0.0
2016-May-16 07:31N 39°33' E 002°38'0 0.0
2016-May-16 06:31N 39°33' E 002°38'0 0.0
2016-May-16 05:31N 39°33' E 002°38'0 0.0
2016-May-16 04:31N 39°33' E 002°38'0 0.0
2016-May-16 03:31N 39°33' E 002°38'0 0.0
2016-May-16 02:31N 39°33' E 002°38'0 0.0
2016-May-16 01:31N 39°33' E 002°38'0 0.0
2016-May-16 00:31N 39°33' E 002°38'0 0.0
2016-May-15 23:31N 39°33' E 002°38'0 0.0
2016-May-15 22:31N 39°33' E 002°38'0 0.0
2016-May-15 21:31N 39°33' E 002°38'0 0.0
2016-May-15 20:31N 39°33' E 002°38'0 0.0
2016-May-15 19:31N 39°33' E 002°38'0 0.0
2016-May-15 18:31N 39°33' E 002°38'0 0.0
2016-May-15 17:31N 39°33' E 002°38'0 0.0
2016-May-15 16:31N 39°33' E 002°38'0 0.0
2016-May-15 15:31N 39°33' E 002°38'0 0.0
2016-May-15 14:31N 39°33' E 002°38'0 0.0
2016-May-15 13:31N 39°33' E 002°38'0 0.0
2016-May-15 12:31N 39°33' E 002°38'0 0.0
2016-May-15 11:31N 39°33' E 002°38'0 0.0
2016-May-15 10:25N 39°33' E 002°38'0 0.0
2016-May-15 09:31N 39°33' E 002°38'0 0.0
2016-May-15 08:31N 39°33' E 002°38'0 0.0
2016-May-15 07:31N 39°33' E 002°38'0 0.0
2016-May-15 06:31N 39°33' E 002°38'0 0.0
2016-May-15 05:31N 39°33' E 002°38'0 0.0
2016-May-15 04:31N 39°33' E 002°38'0 0.0
2016-May-15 03:31N 39°33' E 002°38'0 0.0
2016-May-15 02:31N 39°33' E 002°38'0 0.0
2016-May-15 01:31N 39°33' E 002°38'0 0.0
2016-May-15 00:31N 39°33' E 002°38'0 0.0
2016-May-14 23:31N 39°33' E 002°38'0 0.0
2016-May-14 22:31N 39°33' E 002°38'0 0.0
2016-May-14 21:31N 39°33' E 002°38'0 0.0
2016-May-14 20:31N 39°33' E 002°38'0 0.0
2016-May-14 19:31N 39°33' E 002°38'0 0.0
2016-May-14 18:31N 39°33' E 002°38'0 0.0
2016-May-14 17:31N 39°33' E 002°38'0 0.0
2016-May-14 16:31N 39°33' E 002°38'0 0.0
2016-May-14 15:28N 39°33' E 002°38'0 0.0
2016-May-14 14:31N 39°33' E 002°38'0 0.0
2016-May-14 13:31N 39°33' E 002°38'0 0.0
2016-May-14 12:31N 39°33' E 002°38'0 0.0
2016-May-14 11:31N 39°33' E 002°38'0 0.0
2016-May-14 10:31N 39°33' E 002°38'0 0.0
2016-May-14 09:31N 39°33' E 002°38'0 0.0
2016-May-14 08:31N 39°33' E 002°38'0 0.0
2016-May-14 07:28N 39°33' E 002°38'  
Track history (hours):
 
Tides and Currents Weather Stations Pressure Air Temp Water Temp Dewpoint Dewpoint Depression Visibility Wind Speed Wind Dir Waves Ship Positions

Titan

Last reported at 2016-May-24 07:06 UTC. Time now 2016-May-27 14:19 UTC.
Position N 39°29' E 002°29'.

Length 80 m; draft 3.5 m.

Type: Pleasure craft. MMSI: 310598000.

Date/timePositionNaut miles runAvg speedWind from/ knotsBaromVisibWave heightAir tempDewpointWater temp
2016-May-24 07:06N 39°29' E 002°29'0 0.0
2016-May-24 06:12N 39°29' E 002°29'1 0.0
2016-May-23 15:33N 39°29' E 002°28'0 0.1
2016-May-23 14:29N 39°29' E 002°28'4 4.3
2016-May-23 13:34N 39°30' E 002°33'1 1.3
2016-May-23 12:31N 39°31' E 002°33'0 0.0
2016-May-23 11:31N 39°31' E 002°33'0 0.0
2016-May-23 10:28N 39°31' E 002°33'0 0.0
2016-May-23 09:31N 39°31' E 002°33'4 4.2
2016-May-23 08:33N 39°33' E 002°38'0 0.0
2016-May-23 07:31N 39°33' E 002°38'0 0.0
2016-May-23 06:28N 39°33' E 002°38'0 0.0
2016-May-23 05:28N 39°33' E 002°38'0 0.0
2016-May-23 04:31N 39°33' E 002°38'0 0.0
2016-May-23 03:31N 39°33' E 002°38'0 0.0
2016-May-23 02:31N 39°33' E 002°38'0 0.0
2016-May-23 01:31N 39°33' E 002°38'0 0.0
2016-May-23 00:31N 39°33' E 002°38'0 0.0
2016-May-22 23:31N 39°33' E 002°38'0 0.0
2016-May-22 22:31N 39°33' E 002°38'0 0.0
2016-May-22 21:31N 39°33' E 002°38'0 0.0
2016-May-22 20:31N 39°33' E 002°38'0 0.0
2016-May-22 19:31N 39°33' E 002°38'0 0.0
2016-May-22 18:31N 39°33' E 002°38'0 0.0
2016-May-22 17:31N 39°33' E 002°38'0 0.0
2016-May-22 16:31N 39°33' E 002°38'0 0.0
2016-May-22 15:31N 39°33' E 002°38'0 0.0
2016-May-22 14:31N 39°33' E 002°38'0 0.0
2016-May-22 13:31N 39°33' E 002°38'0 0.0
2016-May-22 12:31N 39°33' E 002°38'0 0.0
2016-May-22 11:28N 39°33' E 002°38'0 0.0
2016-May-22 10:31N 39°33' E 002°38'0 0.0
2016-May-22 09:31N 39°33' E 002°38'0 0.0
2016-May-22 08:31N 39°33' E 002°38'0 0.0
2016-May-22 07:31N 39°33' E 002°38'0 0.0
2016-May-22 06:31N 39°33' E 002°38'0 0.0
2016-May-22 05:31N 39°33' E 002°38'0 0.0
2016-May-22 04:31N 39°33' E 002°38'0 0.0
2016-May-22 03:31N 39°33' E 002°38'0 0.0
2016-May-22 02:31N 39°33' E 002°38'0 0.0
2016-May-22 01:32N 39°33' E 002°38'0 0.0
2016-May-22 00:31N 39°33' E 002°38'0 0.0
2016-May-21 23:31N 39°33' E 002°38'0 0.0
2016-May-21 22:31N 39°33' E 002°38'0 0.0
2016-May-21 21:31N 39°33' E 002°38'0 0.0
2016-May-21 20:31N 39°33' E 002°38'0 0.0
2016-May-21 19:31N 39°33' E 002°38'0 0.0
2016-May-21 18:31N 39°33' E 002°38'0 0.0
2016-May-21 17:31N 39°33' E 002°38'0 0.0
2016-May-21 16:31N 39°33' E 002°38'0 0.0
2016-May-21 15:31N 39°33' E 002°38'0 0.0
2016-May-21 14:31N 39°33' E 002°38'0 0.0
2016-May-21 13:31N 39°33' E 002°38'0 0.0
2016-May-21 12:28N 39°33' E 002°38'0 0.0
2016-May-21 11:31N 39°33' E 002°38'0 0.0
2016-May-21 10:31N 39°33' E 002°38'0 0.0
2016-May-21 09:31N 39°33' E 002°38'0 0.0
2016-May-21 08:31N 39°33' E 002°38'0 0.0
2016-May-21 07:31N 39°33' E 002°38'0 0.0
2016-May-21 06:31N 39°33' E 002°38'0 0.0
2016-May-21 05:31N 39°33' E 002°38'0 0.0
2016-May-21 04:31N 39°33' E 002°38'0 0.0
2016-May-21 03:31N 39°33' E 002°38'0 0.0
2016-May-21 02:31N 39°33' E 002°38'0 0.0
2016-May-21 01:31N 39°33' E 002°38'0 0.0
2016-May-21 00:31N 39°33' E 002°38'0 0.0
2016-May-20 23:25N 39°33' E 002°38'0 0.0
2016-May-20 22:31N 39°33' E 002°38'0 0.0
2016-May-20 21:28N 39°33' E 002°38'0 0.0
2016-May-20 20:28N 39°33' E 002°38'0 0.0
2016-May-20 19:31N 39°33' E 002°38'0 0.0
2016-May-20 18:28N 39°33' E 002°38'0 0.0
2016-May-20 17:31N 39°33' E 002°38'0 0.0
2016-May-20 16:31N 39°33' E 002°38'0 0.0
2016-May-20 15:31N 39°33' E 002°38'0 0.0
2016-May-20 14:31N 39°33' E 002°38'0 0.0
2016-May-20 13:31N 39°33' E 002°38'0 0.0
2016-May-20 12:31N 39°33' E 002°38'0 0.0
2016-May-20 11:31N 39°33' E 002°38'0 0.0
2016-May-20 10:31N 39°33' E 002°38'0 0.0
2016-May-20 09:25N 39°33' E 002°38'0 0.0
2016-May-20 08:31N 39°33' E 002°38'0 0.0
2016-May-20 07:31N 39°33' E 002°38'0 0.0
2016-May-20 06:31N 39°33' E 002°38'0 0.0
2016-May-20 05:31N 39°33' E 002°38'0 0.0
2016-May-20 04:31N 39°33' E 002°38'0 0.0
2016-May-20 03:31N 39°33' E 002°38'0 0.0
2016-May-20 02:31N 39°33' E 002°38'0 0.0
2016-May-20 01:31N 39°33' E 002°38'0 0.0
2016-May-20 00:31N 39°33' E 002°38'0 0.0
2016-May-19 23:31N 39°33' E 002°38'0 0.0
2016-May-19 22:28N 39°33' E 002°38'0 0.0
2016-May-19 21:31N 39°33' E 002°38'0 0.0
2016-May-19 20:31N 39°33' E 002°38'0 0.0
2016-May-19 19:31N 39°33' E 002°38'0 0.0
2016-May-19 18:31N 39°33' E 002°38'0 0.0
2016-May-19 17:31N 39°33' E 002°38'0 0.0
2016-May-19 16:31N 39°33' E 002°38'0 0.0
2016-May-19 15:31N 39°33' E 002°38'0 0.0
2016-May-19 10:31N 39°33' E 002°38'0 0.0
2016-May-19 09:31N 39°33' E 002°38'0 0.0
2016-May-19 08:31N 39°33' E 002°38'0 0.0
2016-May-19 07:28N 39°33' E 002°38'0 0.0
2016-May-19 06:31N 39°33' E 002°38'0 0.0
2016-May-19 05:28N 39°33' E 002°38'0 0.0
2016-May-19 04:31N 39°33' E 002°38'0 0.0
2016-May-19 03:31N 39°33' E 002°38'0 0.0
2016-May-19 02:31N 39°33' E 002°38'0 0.0
2016-May-19 01:31N 39°33' E 002°38'0 0.0
2016-May-19 00:31N 39°33' E 002°38'0 0.0
2016-May-18 23:31N 39°33' E 002°38'0 0.0
2016-May-18 22:28N 39°33' E 002°38'0 0.0
2016-May-18 21:31N 39°33' E 002°38'0 0.0
2016-May-18 20:31N 39°33' E 002°38'0 0.0
2016-May-18 19:22N 39°33' E 002°38'0 0.0
2016-May-18 18:31N 39°33' E 002°38'0 0.0
2016-May-18 17:31N 39°33' E 002°38'0 0.0
2016-May-18 16:31N 39°33' E 002°38'0 0.0
2016-May-18 15:31N 39°33' E 002°38'0 0.0
2016-May-18 14:31N 39°33' E 002°38'0 0.0
2016-May-18 13:31N 39°33' E 002°38'0 0.0
2016-May-18 12:31N 39°33' E 002°38'0 0.0
2016-May-18 11:31N 39°33' E 002°38'0 0.0
2016-May-18 10:31N 39°33' E 002°38'0 0.0
2016-May-18 09:31N 39°33' E 002°38'0 0.0
2016-May-18 08:28N 39°33' E 002°38'0 0.0
2016-May-18 07:31N 39°33' E 002°38'0 0.0
2016-May-18 06:31N 39°33' E 002°38'0 0.0
2016-May-18 05:31N 39°33' E 002°38'0 0.0
2016-May-18 04:31N 39°33' E 002°38'0 0.0
2016-May-18 03:31N 39°33' E 002°38'0 0.0
2016-May-18 02:31N 39°33' E 002°38'0 0.0
2016-May-18 01:31N 39°33' E 002°38'0 0.0
2016-May-18 00:31N 39°33' E 002°38'0 0.0
2016-May-17 23:31N 39°33' E 002°38'0 0.0
2016-May-17 22:28N 39°33' E 002°38'0 0.0
2016-May-17 21:31N 39°33' E 002°38'0 0.0
2016-May-17 20:31N 39°33' E 002°38'0 0.0
2016-May-17 19:31N 39°33' E 002°38'0 0.0
2016-May-17 18:31N 39°33' E 002°38'0 0.0
2016-May-17 17:31N 39°33' E 002°38'0 0.0
2016-May-17 16:31N 39°33' E 002°38'0 0.0
2016-May-17 15:31N 39°33' E 002°38'0 0.0
2016-May-17 14:31N 39°33' E 002°38'0 0.0
2016-May-17 13:31N 39°33' E 002°38'0 0.0
2016-May-17 12:31N 39°33' E 002°38'0 0.0
2016-May-17 11:31N 39°33' E 002°38'0 0.0
2016-May-17 10:31N 39°33' E 002°38'0 0.0
2016-May-17 09:31N 39°33' E 002°38'0 0.0
2016-May-17 08:31N 39°33' E 002°38'0 0.0
2016-May-17 07:31N 39°33' E 002°38'0 0.0
2016-May-17 06:31N 39°33' E 002°38'0 0.0
2016-May-17 05:28N 39°33' E 002°38'0 0.0
2016-May-17 04:31N 39°33' E 002°38'0 0.0
2016-May-17 03:31N 39°33' E 002°38'0 0.0
2016-May-17 02:28N 39°33' E 002°38'0 0.0
2016-May-17 01:31N 39°33' E 002°38'0 0.0
2016-May-17 00:31N 39°33' E 002°38'0 0.0
2016-May-16 23:31N 39°33' E 002°38'0 0.0
2016-May-16 22:31N 39°33' E 002°38'0 0.0
2016-May-16 21:31N 39°33' E 002°38'0 0.0
2016-May-16 20:28N 39°33' E 002°38'0 0.0
2016-May-16 19:31N 39°33' E 002°38'0 0.0
2016-May-16 18:31N 39°33' E 002°38'0 0.0
2016-May-16 17:31N 39°33' E 002°38'0 0.0
2016-May-16 16:31N 39°33' E 002°38'0 0.0
2016-May-16 12:07N 39°33' E 002°38'0 0.0
2016-May-16 11:28N 39°33' E 002°38'0 0.0
2016-May-16 10:31N 39°33' E 002°38'0 0.0
2016-May-16 09:31N 39°33' E 002°38'0 0.0
2016-May-16 08:31N 39°33' E 002°38'0 0.0
2016-May-16 07:31N 39°33' E 002°38'0 0.0
2016-May-16 06:31N 39°33' E 002°38'0 0.0
2016-May-16 05:31N 39°33' E 002°38'0 0.0
2016-May-16 04:31N 39°33' E 002°38'0 0.0
2016-May-16 03:31N 39°33' E 002°38'0 0.0
2016-May-16 02:31N 39°33' E 002°38'0 0.0
2016-May-16 01:31N 39°33' E 002°38'0 0.0
2016-May-16 00:31N 39°33' E 002°38'0 0.0
2016-May-15 23:31N 39°33' E 002°38'0 0.0
2016-May-15 22:31N 39°33' E 002°38'0 0.0
2016-May-15 21:31N 39°33' E 002°38'0 0.0
2016-May-15 20:31N 39°33' E 002°38'0 0.0
2016-May-15 19:31N 39°33' E 002°38'0 0.0
2016-May-15 18:31N 39°33' E 002°38'0 0.0
2016-May-15 17:31N 39°33' E 002°38'0 0.0
2016-May-15 16:31N 39°33' E 002°38'0 0.0
2016-May-15 15:31N 39°33' E 002°38'0 0.0
2016-May-15 14:31N 39°33' E 002°38'0 0.0
2016-May-15 13:31N 39°33' E 002°38'0 0.0
2016-May-15 12:31N 39°33' E 002°38'0 0.0
2016-May-15 11:31N 39°33' E 002°38'0 0.0
2016-May-15 10:25N 39°33' E 002°38'0 0.0
2016-May-15 09:31N 39°33' E 002°38'0 0.0
2016-May-15 08:31N 39°33' E 002°38'0 0.0
2016-May-15 07:31N 39°33' E 002°38'0 0.0
2016-May-15 06:31N 39°33' E 002°38'0 0.0
2016-May-15 05:31N 39°33' E 002°38'0 0.0
2016-May-15 04:31N 39°33' E 002°38'0 0.0
2016-May-15 03:31N 39°33' E 002°38'0 0.0
2016-May-15 02:31N 39°33' E 002°38'0 0.0
2016-May-15 01:31N 39°33' E 002°38'0 0.0
2016-May-15 00:31N 39°33' E 002°38'0 0.0
2016-May-14 23:31N 39°33' E 002°38'0 0.0
2016-May-14 22:31N 39°33' E 002°38'0 0.0
2016-May-14 21:31N 39°33' E 002°38'0 0.0
2016-May-14 20:31N 39°33' E 002°38'0 0.0
2016-May-14 19:31N 39°33' E 002°38'0 0.0
2016-May-14 18:31N 39°33' E 002°38'0 0.0
2016-May-14 17:31N 39°33' E 002°38'0 0.0
2016-May-14 16:31N 39°33' E 002°38'0 0.0
2016-May-14 15:28N 39°33' E 002°38'0 0.0
2016-May-14 14:31N 39°33' E 002°38'0 0.0
2016-May-14 13:31N 39°33' E 002°38'0 0.0
2016-May-14 12:31N 39°33' E 002°38'0 0.0
2016-May-14 11:31N 39°33' E 002°38'0 0.0
2016-May-14 10:31N 39°33' E 002°38'0 0.0
2016-May-14 09:31N 39°33' E 002°38'0 0.0
2016-May-14 08:31N 39°33' E 002°38'0 0.0
2016-May-14 07:28N 39°33' E 002°38'  

Dump ship's entire track history